createdAt,value
2016-10-09T00:00:50.213Z,930.38
2016-10-09T00:01:50.268Z,930.41
2016-10-09T00:02:50.320Z,930.42
2016-10-09T00:03:50.399Z,930.45
2016-10-09T00:04:50.431Z,930.44
2016-10-09T00:05:50.493Z,930.48
2016-10-09T00:06:50.566Z,930.52
2016-10-09T00:07:50.618Z,930.53
2016-10-09T00:08:50.662Z,930.54
2016-10-09T00:09:50.724Z,930.53
2016-10-09T00:10:50.767Z,930.6
2016-10-09T00:11:50.805Z,930.57
2016-10-09T00:12:50.889Z,930.58
2016-10-09T00:13:50.943Z,930.57
2016-10-09T00:14:50.993Z,930.61
2016-10-09T00:15:51.025Z,930.61
2016-10-09T00:16:51.084Z,930.63
2016-10-09T00:17:51.129Z,930.65
2016-10-09T00:18:51.203Z,930.62
2016-10-09T00:19:51.264Z,930.66
2016-10-09T00:20:51.295Z,930.65
2016-10-09T00:21:51.359Z,930.64
2016-10-09T00:22:51.414Z,930.67
2016-10-09T00:23:51.452Z,930.72
2016-10-09T00:24:51.521Z,930.73
2016-10-09T00:25:51.559Z,930.72
2016-10-09T00:26:51.645Z,930.72
2016-10-09T00:27:51.766Z,930.73
2016-10-09T00:28:51.724Z,930.73
2016-10-09T00:29:51.803Z,930.73
2016-10-09T00:30:51.840Z,930.76
2016-10-09T00:31:51.887Z,930.78
2016-10-09T00:32:51.948Z,930.75
2016-10-09T00:33:52.010Z,930.81
2016-10-09T00:34:52.047Z,930.83
2016-10-09T00:35:52.113Z,930.8
2016-10-09T00:36:52.176Z,930.81
2016-10-09T00:37:52.231Z,930.84
2016-10-09T00:38:52.275Z,930.84
2016-10-09T00:39:52.320Z,930.83
2016-10-09T00:40:52.392Z,930.81
2016-10-09T00:41:52.420Z,930.84
2016-10-09T00:42:52.506Z,930.87
2016-10-09T00:43:52.541Z,930.88
2016-10-09T00:44:52.612Z,930.92
2016-10-09T00:45:52.643Z,930.83
2016-10-09T00:46:52.696Z,930.88
2016-10-09T00:47:52.769Z,930.89
2016-10-09T00:48:52.823Z,930.89
2016-10-09T00:49:52.858Z,930.87
2016-10-09T00:50:52.911Z,930.89
2016-10-09T00:51:52.972Z,930.9
2016-10-09T00:52:53.014Z,930.87
2016-10-09T00:53:53.072Z,930.87
2016-10-09T00:54:53.149Z,930.87
2016-10-09T00:55:53.190Z,930.89
2016-10-09T00:56:53.250Z,930.92
2016-10-09T00:57:53.284Z,930.9
2016-10-09T00:58:53.339Z,930.91
2016-10-09T00:59:53.408Z,930.94
2016-10-09T01:00:53.444Z,930.93
2016-10-09T01:01:53.498Z,930.93
2016-10-09T01:02:53.551Z,930.93
2016-10-09T01:03:53.713Z,930.89
2016-10-09T01:04:53.683Z,930.92
2016-10-09T01:05:53.735Z,930.9
2016-10-09T01:06:53.773Z,930.92
2016-10-09T01:07:53.819Z,930.9
2016-10-09T01:08:53.870Z,930.9
2016-10-09T01:09:53.931Z,930.91
2016-10-09T01:10:54.004Z,930.91
2016-10-09T01:11:54.035Z,930.92
2016-10-09T01:12:54.111Z,930.95
2016-10-09T01:13:54.139Z,930.92
2016-10-09T01:14:54.217Z,930.94
2016-10-09T01:15:54.270Z,930.89
2016-10-09T01:16:54.305Z,930.9
2016-10-09T01:17:54.383Z,930.92
2016-10-09T01:18:54.407Z,930.9
2016-10-09T01:19:54.486Z,930.94
2016-10-09T01:20:54.528Z,930.91
2016-10-09T01:21:54.566Z,930.91
2016-10-09T01:22:54.644Z,930.92
2016-10-09T01:23:54.678Z,930.91
2016-10-09T01:24:54.735Z,930.91
2016-10-09T01:25:54.781Z,930.9
2016-10-09T01:26:54.833Z,930.94
2016-10-09T01:27:54.888Z,930.91
2016-10-09T01:28:54.940Z,930.9
2016-10-09T01:29:55.118Z,930.89
2016-10-09T01:30:55.060Z,930.9
2016-10-09T01:31:55.124Z,930.91
2016-10-09T01:32:55.164Z,930.9
2016-10-09T01:33:55.233Z,930.89
2016-10-09T01:34:55.377Z,930.87
2016-10-09T01:35:55.313Z,930.83
2016-10-09T01:36:55.373Z,930.85
2016-10-09T01:37:55.419Z,930.88
2016-10-09T01:38:55.474Z,930.85
2016-10-09T01:39:55.534Z,930.87
2016-10-09T01:40:55.599Z,930.86
2016-10-09T01:41:55.636Z,930.84
2016-10-09T01:42:55.687Z,930.81
2016-10-09T01:43:55.754Z,930.85
2016-10-09T01:44:55.825Z,930.81
2016-10-09T01:45:55.857Z,930.82
2016-10-09T01:46:55.919Z,930.85
2016-10-09T01:47:55.968Z,930.81
2016-10-09T01:48:56.032Z,930.83
2016-10-09T01:49:56.064Z,930.81
2016-10-09T01:50:56.140Z,930.86
2016-10-09T01:51:56.176Z,930.81
2016-10-09T01:52:56.232Z,930.78
2016-10-09T01:53:56.283Z,930.82
2016-10-09T01:54:56.325Z,930.77
2016-10-09T01:55:56.379Z,930.78
2016-10-09T01:56:56.441Z,930.81
2016-10-09T01:57:56.510Z,930.79
2016-10-09T01:58:56.544Z,930.81
2016-10-09T01:59:56.597Z,930.81
2016-10-09T02:00:56.660Z,930.83
2016-10-09T02:01:56.724Z,930.83
2016-10-09T02:02:56.755Z,930.81
2016-10-09T02:03:56.811Z,930.83
2016-10-09T02:04:56.886Z,930.85
2016-10-09T02:05:57.022Z,930.85
2016-10-09T02:06:56.989Z,930.86
2016-10-09T02:07:57.028Z,930.85
2016-10-09T02:08:57.072Z,930.82
2016-10-09T02:09:57.150Z,930.84
2016-10-09T02:10:57.178Z,930.86
2016-10-09T02:11:57.261Z,930.83
2016-10-09T02:12:57.294Z,930.91
2016-10-09T02:13:57.363Z,930.89
2016-10-09T02:14:57.399Z,930.88
2016-10-09T02:15:57.454Z,930.86
2016-10-09T02:16:57.496Z,930.88
2016-10-09T02:17:57.557Z,930.85
2016-10-09T02:18:57.598Z,930.86
2016-10-09T02:19:57.656Z,930.84
2016-10-09T02:20:57.716Z,930.85
2016-10-09T02:21:57.762Z,930.85
2016-10-09T02:22:57.816Z,930.88
2016-10-09T02:23:57.896Z,930.85
2016-10-09T02:24:57.917Z,930.88
2016-10-09T02:25:58.002Z,930.84
2016-10-09T02:26:58.033Z,930.85
2016-10-09T02:27:58.090Z,930.84
2016-10-09T02:28:58.133Z,930.81
2016-10-09T02:29:58.199Z,930.84
2016-10-09T02:30:58.259Z,930.82
2016-10-09T02:31:58.310Z,930.81
2016-10-09T02:32:58.342Z,930.84
2016-10-09T02:33:58.420Z,930.82
2016-10-09T02:34:58.455Z,930.78
2016-10-09T02:35:58.504Z,930.83
2016-10-09T02:36:58.659Z,930.83
2016-10-09T02:37:58.621Z,930.8
2016-10-09T02:38:58.664Z,930.86
2016-10-09T02:39:58.735Z,930.79
2016-10-09T02:40:58.777Z,930.79
2016-10-09T02:41:58.948Z,930.79
2016-10-09T02:42:58.870Z,930.82
2016-10-09T02:43:58.944Z,930.81
2016-10-09T02:44:58.981Z,930.8
2016-10-09T02:45:59.034Z,930.76
2016-10-09T02:46:59.086Z,930.8
2016-10-09T02:47:59.133Z,930.81
2016-10-09T02:48:59.199Z,930.82
2016-10-09T02:49:59.262Z,930.78
2016-10-09T02:50:59.291Z,930.75
2016-10-09T02:51:59.351Z,930.77
2016-10-09T02:52:59.416Z,930.77
2016-10-09T02:53:59.470Z,930.75
2016-10-09T02:54:59.516Z,930.74
2016-10-09T02:55:59.566Z,930.75
2016-10-09T02:56:59.610Z,930.76
2016-10-09T02:57:59.672Z,930.76
2016-10-09T02:58:59.714Z,930.75
2016-10-09T02:59:59.767Z,930.74
2016-10-09T03:00:59.829Z,930.71
2016-10-09T03:01:59.886Z,930.73
2016-10-09T03:02:59.932Z,930.72
2016-10-09T03:03:59.999Z,930.73
2016-10-09T03:05:00.042Z,930.7
2016-10-09T03:06:00.097Z,930.7
2016-10-09T03:07:00.135Z,930.71
2016-10-09T03:08:00.200Z,930.69
2016-10-09T03:09:00.243Z,930.66
2016-10-09T03:10:00.296Z,930.73
2016-10-09T03:11:00.360Z,930.68
2016-10-09T03:12:00.402Z,930.7
2016-10-09T03:13:00.485Z,930.66
2016-10-09T03:14:00.520Z,930.68
2016-10-09T03:15:00.567Z,930.64
2016-10-09T03:16:00.632Z,930.66
2016-10-09T03:17:00.691Z,930.63
2016-10-09T03:18:00.838Z,930.61
2016-10-09T03:19:00.784Z,930.63
2016-10-09T03:20:00.823Z,930.64
2016-10-09T03:21:00.886Z,930.66
2016-10-09T03:22:00.927Z,930.67
2016-10-09T03:23:01.105Z,930.61
2016-10-09T03:24:01.037Z,930.64
2016-10-09T03:25:01.113Z,930.62
2016-10-09T03:26:01.140Z,930.59
2016-10-09T03:27:01.207Z,930.6
2016-10-09T03:28:01.244Z,930.59
2016-10-09T03:29:01.297Z,930.61
2016-10-09T03:30:01.358Z,930.63
2016-10-09T03:31:01.412Z,930.59
2016-10-09T03:32:01.463Z,930.62
2016-10-09T03:33:01.534Z,930.6
2016-10-09T03:34:01.584Z,930.61
2016-10-09T03:35:01.640Z,930.58
2016-10-09T03:36:01.670Z,930.61
2016-10-09T03:37:01.733Z,930.64
2016-10-09T03:38:01.803Z,930.59
2016-10-09T03:39:01.822Z,930.62
2016-10-09T03:40:01.877Z,930.59
2016-10-09T03:41:01.949Z,930.62
2016-10-09T03:42:02.016Z,930.56
2016-10-09T03:43:02.036Z,930.61
2016-10-09T03:44:02.102Z,930.58
2016-10-09T03:45:02.165Z,930.59
2016-10-09T03:46:02.193Z,930.59
2016-10-09T03:47:02.245Z,930.56
2016-10-09T03:48:02.302Z,930.57
2016-10-09T03:49:02.355Z,930.6
2016-10-09T03:50:02.410Z,930.66
2016-10-09T03:51:02.469Z,930.59
2016-10-09T03:52:02.516Z,930.57
2016-10-09T03:53:02.565Z,930.58
2016-10-09T03:54:02.714Z,930.59
2016-10-09T03:55:02.669Z,930.61
2016-10-09T03:56:02.732Z,930.56
2016-10-09T03:57:02.784Z,930.56
2016-10-09T03:58:02.824Z,930.59
2016-10-09T03:59:02.889Z,930.59
2016-10-09T04:00:02.929Z,930.57
2016-10-09T04:01:02.988Z,930.61
2016-10-09T04:02:03.044Z,930.61
2016-10-09T04:03:03.090Z,930.57
2016-10-09T04:04:03.167Z,930.6
2016-10-09T04:05:03.206Z,930.61
2016-10-09T04:06:03.271Z,930.55
2016-10-09T04:07:03.309Z,930.59
2016-10-09T04:08:03.358Z,930.58
2016-10-09T04:09:03.415Z,930.58
2016-10-09T04:10:03.456Z,930.58
2016-10-09T04:11:03.503Z,930.57
2016-10-09T04:12:03.598Z,930.55
2016-10-09T04:13:03.633Z,930.57
2016-10-09T04:14:03.678Z,930.57
2016-10-09T04:15:03.717Z,930.55
2016-10-09T04:16:03.767Z,930.55
2016-10-09T04:17:03.821Z,930.53
2016-10-09T04:18:03.881Z,930.54
2016-10-09T04:19:03.936Z,930.55
2016-10-09T04:20:03.977Z,930.53
2016-10-09T04:21:04.049Z,930.56
2016-10-09T04:22:04.095Z,930.54
2016-10-09T04:23:04.161Z,930.56
2016-10-09T04:24:04.195Z,930.56
2016-10-09T04:25:04.251Z,930.53
2016-10-09T04:26:04.320Z,930.55
2016-10-09T04:27:04.356Z,930.52
2016-10-09T04:28:04.418Z,930.52
2016-10-09T04:29:04.467Z,930.55
2016-10-09T04:30:04.635Z,930.54
2016-10-09T04:31:04.585Z,930.56
2016-10-09T04:32:04.613Z,930.56
2016-10-09T04:33:04.670Z,930.59
2016-10-09T04:34:04.713Z,930.56
2016-10-09T04:35:04.778Z,930.56
2016-10-09T04:36:04.842Z,930.6
2016-10-09T04:37:04.884Z,930.6
2016-10-09T04:38:04.933Z,930.58
2016-10-09T04:39:04.981Z,930.56
2016-10-09T04:40:05.028Z,930.55
2016-10-09T04:41:05.106Z,930.56
2016-10-09T04:42:05.165Z,930.57
2016-10-09T04:43:05.214Z,930.56
2016-10-09T04:44:05.238Z,930.53
2016-10-09T04:45:05.301Z,930.54
2016-10-09T04:46:05.347Z,930.57
2016-10-09T04:47:05.407Z,930.56
2016-10-09T04:48:05.457Z,930.6
2016-10-09T04:49:05.503Z,930.58
2016-10-09T04:50:05.567Z,930.59
2016-10-09T04:51:05.609Z,930.56
2016-10-09T04:52:05.674Z,930.6
2016-10-09T04:53:05.733Z,930.62
2016-10-09T04:54:05.768Z,930.61
2016-10-09T04:55:05.829Z,930.62
2016-10-09T04:56:05.869Z,930.6
2016-10-09T04:57:05.951Z,930.64
2016-10-09T04:58:05.985Z,930.61
2016-10-09T04:59:06.041Z,930.64
2016-10-09T05:00:06.097Z,930.66
2016-10-09T05:01:06.130Z,930.65
2016-10-09T05:02:06.191Z,930.62
2016-10-09T05:03:06.239Z,930.63
2016-10-09T05:04:06.317Z,930.6
2016-10-09T05:05:06.369Z,930.61
2016-10-09T05:06:06.509Z,930.55
2016-10-09T05:07:06.457Z,930.57
2016-10-09T05:08:06.492Z,930.55
2016-10-09T05:09:06.561Z,930.59
2016-10-09T05:10:06.600Z,930.59
2016-10-09T05:11:06.654Z,930.62
2016-10-09T05:12:06.704Z,930.61
2016-10-09T05:13:06.771Z,930.55
2016-10-09T05:14:06.809Z,930.58
2016-10-09T05:15:06.886Z,930.55
2016-10-09T05:16:06.925Z,930.54
2016-10-09T05:17:06.966Z,930.53
2016-10-09T05:18:07.020Z,930.52
2016-10-09T05:19:07.095Z,930.54
2016-10-09T05:20:07.140Z,930.51
2016-10-09T05:21:07.174Z,930.51
2016-10-09T05:22:07.233Z,930.5
2016-10-09T05:23:07.289Z,930.53
2016-10-09T05:24:07.332Z,930.52
2016-10-09T05:25:07.404Z,930.51
2016-10-09T05:26:07.476Z,930.51
2016-10-09T05:27:07.513Z,930.49
2016-10-09T05:28:07.544Z,930.5
2016-10-09T05:29:07.620Z,930.46
2016-10-09T05:30:07.645Z,930.45
2016-10-09T05:31:07.706Z,930.44
2016-10-09T05:32:07.784Z,930.44
2016-10-09T05:33:07.813Z,930.44
2016-10-09T05:34:07.865Z,930.44
2016-10-09T05:35:07.921Z,930.4
2016-10-09T05:36:07.968Z,930.42
2016-10-09T05:37:08.131Z,930.43
2016-10-09T05:38:08.063Z,930.45
2016-10-09T05:39:08.126Z,930.43
2016-10-09T05:40:08.180Z,930.45
2016-10-09T05:41:08.228Z,930.47
2016-10-09T05:42:08.307Z,930.48
2016-10-09T05:43:08.324Z,930.46
2016-10-09T05:44:08.378Z,930.44
2016-10-09T05:45:08.463Z,930.49
2016-10-09T05:46:08.484Z,930.49
2016-10-09T05:47:08.554Z,930.49
2016-10-09T05:48:08.585Z,930.53
2016-10-09T05:49:08.639Z,930.51
2016-10-09T05:50:08.718Z,930.52
2016-10-09T05:51:08.750Z,930.53
2016-10-09T05:52:08.817Z,930.52
2016-10-09T05:53:08.873Z,930.51
2016-10-09T05:54:08.911Z,930.5
2016-10-09T05:55:08.953Z,930.53
2016-10-09T05:56:09.024Z,930.51
2016-10-09T05:57:09.084Z,930.57
2016-10-09T05:58:09.130Z,930.56
2016-10-09T05:59:09.175Z,930.56
2016-10-09T06:00:09.237Z,930.56
2016-10-09T06:01:09.275Z,930.59
2016-10-09T06:02:09.329Z,930.6
2016-10-09T06:03:09.386Z,930.57
2016-10-09T06:04:09.448Z,930.57
2016-10-09T06:05:09.480Z,930.58
2016-10-09T06:06:09.554Z,930.61
2016-10-09T06:07:09.600Z,930.63
2016-10-09T06:08:09.735Z,930.63
2016-10-09T06:09:09.711Z,930.62
2016-10-09T06:10:09.754Z,930.63
2016-10-09T06:11:09.794Z,930.62
2016-10-09T06:12:09.867Z,930.6
2016-10-09T06:13:10.016Z,930.63
2016-10-09T06:14:09.955Z,930.63
2016-10-09T06:15:10.015Z,930.64
2016-10-09T06:16:10.048Z,930.64
2016-10-09T06:17:10.101Z,930.63
2016-10-09T06:18:10.156Z,930.67
2016-10-09T06:19:10.230Z,930.64
2016-10-09T06:20:10.283Z,930.62
2016-10-09T06:21:10.322Z,930.63
2016-10-09T06:22:10.362Z,930.62
2016-10-09T06:23:10.441Z,930.59
2016-10-09T06:24:10.481Z,930.65
2016-10-09T06:25:10.532Z,930.66
2016-10-09T06:26:10.596Z,930.66
2016-10-09T06:27:10.622Z,930.68
2016-10-09T06:28:10.677Z,930.69
2016-10-09T06:29:10.736Z,930.72
2016-10-09T06:30:10.777Z,930.75
2016-10-09T06:31:10.833Z,930.74
2016-10-09T06:32:10.884Z,930.75
2016-10-09T06:33:10.939Z,930.74
2016-10-09T06:34:11.015Z,930.77
2016-10-09T06:35:11.071Z,930.79
2016-10-09T06:36:11.105Z,930.78
2016-10-09T06:37:11.147Z,930.75
2016-10-09T06:38:11.212Z,930.77
2016-10-09T06:40:11.317Z,930.83
2016-10-09T06:41:11.353Z,930.84
2016-10-09T06:42:11.406Z,930.83
2016-10-09T06:43:11.458Z,930.86
2016-10-09T06:44:11.518Z,930.82
2016-10-09T06:45:11.571Z,930.89
2016-10-09T06:46:11.640Z,930.87
2016-10-09T06:47:11.689Z,930.91
2016-10-09T06:48:11.729Z,930.92
2016-10-09T06:49:11.802Z,930.95
2016-10-09T06:50:11.837Z,931.01
2016-10-09T06:51:11.888Z,931.01
2016-10-09T06:52:11.938Z,931.06
2016-10-09T06:53:11.989Z,931.04
2016-10-09T06:54:12.054Z,931.08
2016-10-09T06:55:12.109Z,931.09
2016-10-09T06:56:12.134Z,931.1
2016-10-09T06:57:12.189Z,931.14
2016-10-09T06:58:12.262Z,931.17
2016-10-09T06:59:12.317Z,931.17
2016-10-09T07:00:12.369Z,931.18
2016-10-09T07:01:12.422Z,931.2
2016-10-09T07:02:12.448Z,931.19
2016-10-09T07:03:12.509Z,931.15
2016-10-09T07:04:12.553Z,931.18
2016-10-09T07:05:12.628Z,931.19
2016-10-09T07:06:12.683Z,931.2
2016-10-09T07:07:12.736Z,931.16
2016-10-09T07:08:12.763Z,931.24
2016-10-09T07:09:12.833Z,931.22
2016-10-09T07:10:12.880Z,931.24
2016-10-09T07:11:12.939Z,931.27
2016-10-09T07:12:12.992Z,931.29
2016-10-09T07:13:13.028Z,931.25
2016-10-09T07:14:13.070Z,931.26
2016-10-09T07:15:13.140Z,931.29
2016-10-09T07:16:13.199Z,931.32
2016-10-09T07:17:13.239Z,931.32
2016-10-09T07:18:13.283Z,931.27
2016-10-09T07:19:13.334Z,931.27
2016-10-09T07:20:13.380Z,931.34
2016-10-09T07:21:13.434Z,931.35
2016-10-09T07:22:13.507Z,931.32
2016-10-09T07:23:13.556Z,931.33
2016-10-09T07:24:13.598Z,931.36
2016-10-09T07:25:13.642Z,931.35
2016-10-09T07:26:13.694Z,931.39
2016-10-09T07:27:13.764Z,931.36
2016-10-09T07:28:13.823Z,931.42
2016-10-09T07:29:13.877Z,931.44
2016-10-09T07:30:13.918Z,931.46
2016-10-09T07:31:13.979Z,931.47
2016-10-09T07:32:14.034Z,931.47
2016-10-09T07:33:14.068Z,931.47
2016-10-09T07:34:14.120Z,931.44
2016-10-09T07:35:14.177Z,931.5
2016-10-09T07:36:14.228Z,931.5
2016-10-09T07:37:14.280Z,931.52
2016-10-09T07:38:14.316Z,931.51
2016-10-09T07:39:14.380Z,931.55
2016-10-09T07:40:14.428Z,931.55
2016-10-09T07:41:14.472Z,931.54
2016-10-09T07:42:14.523Z,931.56
2016-10-09T07:43:14.582Z,931.59
2016-10-09T07:44:14.631Z,931.61
2016-10-09T07:45:14.677Z,931.61
2016-10-09T07:46:14.762Z,931.64
2016-10-09T07:47:14.798Z,931.62
2016-10-09T07:48:14.834Z,931.69
2016-10-09T07:49:14.898Z,931.69
2016-10-09T07:50:15.170Z,931.69
2016-10-09T07:51:14.999Z,931.73
2016-10-09T07:52:15.040Z,931.71
2016-10-09T07:53:15.097Z,931.84
2016-10-09T07:54:15.143Z,931.84
2016-10-09T07:55:15.213Z,931.87
2016-10-09T07:56:15.246Z,931.9
2016-10-09T07:57:15.325Z,931.93
2016-10-09T07:58:15.352Z,931.92
2016-10-09T07:59:15.403Z,931.91
2016-10-09T08:00:15.480Z,931.97
2016-10-09T08:01:15.510Z,932
2016-10-09T08:02:15.583Z,932.01
2016-10-09T08:03:15.644Z,932.06
2016-10-09T08:04:15.663Z,932.01
2016-10-09T08:05:15.739Z,932.05
2016-10-09T08:06:15.764Z,932.09
2016-10-09T08:07:15.834Z,932.06
2016-10-09T08:08:15.893Z,932.09
2016-10-09T08:09:15.920Z,932.08
2016-10-09T08:10:15.991Z,932.07
2016-10-09T08:11:16.036Z,932.14
2016-10-09T08:12:16.084Z,932.11
2016-10-09T08:13:16.140Z,932.17
2016-10-09T08:14:16.182Z,932.16
2016-10-09T08:15:16.227Z,932.17
2016-10-09T08:16:16.286Z,932.18
2016-10-09T08:17:16.332Z,932.18
2016-10-09T08:18:16.383Z,932.22
2016-10-09T08:19:16.447Z,932.22
2016-10-09T08:20:16.514Z,932.23
2016-10-09T08:21:16.554Z,932.26
2016-10-09T08:22:16.589Z,932.28
2016-10-09T08:23:16.643Z,932.26
2016-10-09T08:24:16.693Z,932.27
2016-10-09T08:25:16.751Z,932.31
2016-10-09T08:26:16.803Z,932.28
2016-10-09T08:27:16.848Z,932.35
2016-10-09T08:28:16.912Z,932.35
2016-10-09T08:29:16.980Z,932.38
2016-10-09T08:30:17.007Z,932.43
2016-10-09T08:31:17.059Z,932.42
2016-10-09T08:32:17.136Z,932.43
2016-10-09T08:33:17.179Z,932.48
2016-10-09T08:34:17.208Z,932.49
2016-10-09T08:35:17.259Z,932.53
2016-10-09T08:36:17.326Z,932.54
2016-10-09T08:37:17.374Z,932.56
2016-10-09T08:38:17.413Z,932.58
2016-10-09T08:39:17.474Z,932.54
2016-10-09T08:40:17.511Z,932.61
2016-10-09T08:41:17.566Z,932.62
2016-10-09T08:42:17.644Z,932.7
2016-10-09T08:43:17.681Z,932.72
2016-10-09T08:44:17.742Z,932.68
2016-10-09T08:45:17.782Z,932.73
2016-10-09T08:46:17.847Z,932.76
2016-10-09T08:47:17.900Z,932.82
2016-10-09T08:48:17.949Z,932.78
2016-10-09T08:49:17.976Z,932.84
2016-10-09T08:50:18.048Z,932.84
2016-10-09T08:51:18.086Z,932.89
2016-10-09T08:52:18.150Z,932.88
2016-10-09T08:53:18.207Z,932.91
2016-10-09T08:54:18.234Z,932.94
2016-10-09T08:55:18.291Z,932.94
2016-10-09T08:56:18.341Z,932.95
2016-10-09T08:57:18.386Z,933.01
2016-10-09T08:58:18.436Z,933.02
2016-10-09T08:59:18.502Z,933.04
2016-10-09T09:00:18.543Z,933.08
2016-10-09T09:01:18.592Z,933.06
2016-10-09T09:02:18.653Z,933.1
2016-10-09T09:03:18.700Z,933.11
2016-10-09T09:04:18.773Z,933.12
2016-10-09T09:05:18.808Z,933.16
2016-10-09T09:06:18.863Z,933.17
2016-10-09T09:07:18.907Z,933.22
2016-10-09T09:08:18.974Z,933.24
2016-10-09T09:09:19.012Z,933.29
2016-10-09T09:10:19.058Z,933.26
2016-10-09T09:11:19.116Z,933.31
2016-10-09T09:12:19.184Z,933.35
2016-10-09T09:13:19.217Z,933.38
2016-10-09T09:14:19.290Z,933.38
2016-10-09T09:15:19.339Z,933.41
2016-10-09T09:16:19.385Z,933.41
2016-10-09T09:17:19.413Z,933.41
2016-10-09T09:18:19.473Z,933.4
2016-10-09T09:19:19.520Z,933.46
2016-10-09T09:20:19.573Z,933.47
2016-10-09T09:21:19.618Z,933.45
2016-10-09T09:22:19.681Z,933.46
2016-10-09T09:23:19.747Z,933.49
2016-10-09T09:24:19.770Z,933.54
2016-10-09T09:25:19.849Z,933.54
2016-10-09T09:26:19.893Z,933.54
2016-10-09T09:27:19.950Z,933.56
2016-10-09T09:28:20.004Z,933.58
2016-10-09T09:29:20.025Z,933.6
2016-10-09T09:30:20.105Z,933.63
2016-10-09T09:31:20.155Z,933.65
2016-10-09T09:32:20.192Z,933.71
2016-10-09T09:33:20.238Z,933.65
2016-10-09T09:34:20.319Z,933.73
2016-10-09T09:35:20.338Z,933.72
2016-10-09T09:36:20.391Z,933.74
2016-10-09T09:37:20.448Z,933.77
2016-10-09T09:38:20.516Z,933.75
2016-10-09T09:39:20.541Z,933.76
2016-10-09T09:40:20.599Z,933.77
2016-10-09T09:41:20.648Z,933.8
2016-10-09T09:42:20.720Z,933.86
2016-10-09T09:43:20.745Z,933.85
2016-10-09T09:44:20.830Z,933.87
2016-10-09T09:45:20.859Z,933.89
2016-10-09T09:46:20.909Z,933.87
2016-10-09T09:47:20.958Z,933.89
2016-10-09T09:48:21.009Z,933.92
2016-10-09T09:49:21.079Z,933.9
2016-10-09T09:50:21.110Z,933.92
2016-10-09T09:51:21.164Z,933.98
2016-10-09T09:52:21.237Z,933.96
2016-10-09T09:53:21.277Z,934
2016-10-09T09:54:21.314Z,933.99
2016-10-09T09:55:21.386Z,934.02
2016-10-09T09:56:21.441Z,934.03
2016-10-09T09:57:21.469Z,934.13
2016-10-09T09:58:21.521Z,934.16
2016-10-09T09:59:21.586Z,934.14
2016-10-09T10:00:21.636Z,934.12
2016-10-09T10:01:21.686Z,934.13
2016-10-09T10:02:21.740Z,934.17
2016-10-09T10:03:21.780Z,934.2
2016-10-09T10:04:21.863Z,934.15
2016-10-09T10:05:21.882Z,934.17
2016-10-09T10:06:21.952Z,934.19
2016-10-09T10:07:22.008Z,934.2
2016-10-09T10:08:22.044Z,934.24
2016-10-09T10:09:22.100Z,934.21
2016-10-09T10:10:22.159Z,934.23
2016-10-09T10:11:22.229Z,934.24
2016-10-09T10:12:22.272Z,934.23
2016-10-09T10:13:22.331Z,934.27
2016-10-09T10:14:22.400Z,934.24
2016-10-09T10:15:22.447Z,934.23
2016-10-09T10:16:22.488Z,934.25
2016-10-09T10:17:22.572Z,934.26
2016-10-09T10:18:22.617Z,934.26
2016-10-09T10:19:22.665Z,934.28
2016-10-09T10:20:22.733Z,934.38
2016-10-09T10:21:22.779Z,934.41
2016-10-09T10:22:22.856Z,934.36
2016-10-09T10:23:22.911Z,934.38
2016-10-09T10:24:22.975Z,934.41
2016-10-09T10:25:23.039Z,934.42
2016-10-09T10:26:23.076Z,934.45
2016-10-09T10:27:23.130Z,934.47
2016-10-09T10:28:23.194Z,934.41
2016-10-09T10:29:23.278Z,934.43
2016-10-09T10:30:23.305Z,934.43
2016-10-09T10:31:23.398Z,934.47
2016-10-09T10:32:23.433Z,934.52
2016-10-09T10:33:23.493Z,934.5
2016-10-09T10:34:23.535Z,934.54
2016-10-09T10:35:23.617Z,934.53
2016-10-09T10:36:23.660Z,934.54
2016-10-09T10:37:23.712Z,934.48
2016-10-09T10:38:23.788Z,934.52
2016-10-09T10:39:23.819Z,934.58
2016-10-09T10:40:23.886Z,934.51
2016-10-09T10:41:23.935Z,934.52
2016-10-09T10:42:24.001Z,934.54
2016-10-09T10:43:24.045Z,934.47
2016-10-09T10:44:24.114Z,934.53
2016-10-09T10:45:24.176Z,934.51
2016-10-09T10:46:24.216Z,934.5
2016-10-09T10:47:24.270Z,934.56
2016-10-09T10:48:24.321Z,934.52
2016-10-09T10:49:24.386Z,934.54
2016-10-09T10:50:24.454Z,934.51
2016-10-09T10:51:24.488Z,934.54
2016-10-09T10:52:24.559Z,934.54
2016-10-09T10:53:24.638Z,934.56
2016-10-09T10:54:24.668Z,934.55
2016-10-09T10:55:24.711Z,934.54
2016-10-09T10:56:24.798Z,934.54
2016-10-09T10:57:24.837Z,934.56
2016-10-09T10:58:24.892Z,934.62
2016-10-09T10:59:24.934Z,934.63
2016-10-09T11:00:24.991Z,934.62
2016-10-09T11:01:25.048Z,934.62
2016-10-09T11:02:25.092Z,934.61
2016-10-09T11:03:25.165Z,934.65
2016-10-09T11:04:25.223Z,934.66
2016-10-09T11:05:25.262Z,934.67
2016-10-09T11:06:25.325Z,934.67
2016-10-09T11:07:25.375Z,934.66
2016-10-09T11:08:25.445Z,934.67
2016-10-09T11:09:25.506Z,934.65
2016-10-09T11:10:25.529Z,934.67
2016-10-09T11:11:25.588Z,934.76
2016-10-09T11:12:25.650Z,934.79
2016-10-09T11:13:25.722Z,934.7
2016-10-09T11:14:25.747Z,934.69
2016-10-09T11:15:25.810Z,934.71
2016-10-09T11:16:25.856Z,934.71
2016-10-09T11:17:25.939Z,934.74
2016-10-09T11:18:25.967Z,934.75
2016-10-09T11:19:26.029Z,934.72
2016-10-09T11:20:26.096Z,934.7
2016-10-09T11:21:26.129Z,934.77
2016-10-09T11:22:26.209Z,934.78
2016-10-09T11:23:26.247Z,934.78
2016-10-09T11:24:26.321Z,934.78
2016-10-09T11:25:26.341Z,934.77
2016-10-09T11:26:26.394Z,934.78
2016-10-09T11:27:26.480Z,934.81
2016-10-09T11:28:26.505Z,934.81
2016-10-09T11:29:26.571Z,934.82
2016-10-09T11:30:26.612Z,934.82
2016-10-09T11:31:26.670Z,934.84
2016-10-09T11:32:26.731Z,934.82
2016-10-09T11:33:26.775Z,934.82
2016-10-09T11:34:26.859Z,934.76
2016-10-09T11:35:26.890Z,934.77
2016-10-09T11:36:26.959Z,934.76
2016-10-09T11:37:26.988Z,934.75
2016-10-09T11:38:27.052Z,934.83
2016-10-09T11:39:27.107Z,934.74
2016-10-09T11:40:27.154Z,934.82
2016-10-09T11:41:27.204Z,934.76
2016-10-09T11:42:27.273Z,934.76
2016-10-09T11:43:27.311Z,934.76
2016-10-09T11:44:27.374Z,934.86
2016-10-09T11:45:27.434Z,934.76
2016-10-09T11:46:27.485Z,934.79
2016-10-09T11:47:27.547Z,934.8
2016-10-09T11:48:27.592Z,934.77
2016-10-09T11:49:27.638Z,934.74
2016-10-09T11:50:27.688Z,934.79
2016-10-09T11:51:27.767Z,934.83
2016-10-09T11:52:27.819Z,934.83
2016-10-09T11:53:27.865Z,934.8
2016-10-09T11:54:27.900Z,934.88
2016-10-09T11:55:27.973Z,934.85
2016-10-09T11:56:28.041Z,934.79
2016-10-09T11:57:28.062Z,934.83
2016-10-09T11:58:28.114Z,934.83
2016-10-09T11:59:28.166Z,934.82
2016-10-09T12:00:28.249Z,934.83
2016-10-09T12:01:28.289Z,934.82
2016-10-09T12:02:28.329Z,934.81
2016-10-09T12:03:28.384Z,934.8
2016-10-09T12:04:28.438Z,934.83
2016-10-09T12:05:28.500Z,934.86
2016-10-09T12:06:28.563Z,934.83
2016-10-09T12:07:28.615Z,934.84
2016-10-09T12:08:28.677Z,934.88
2016-10-09T12:09:28.715Z,934.88
2016-10-09T12:10:28.771Z,934.84
2016-10-09T12:11:28.823Z,934.86
2016-10-09T12:12:28.873Z,934.91
2016-10-09T12:13:28.954Z,934.95
2016-10-09T12:14:28.974Z,934.95
2016-10-09T12:15:29.054Z,934.93
2016-10-09T12:16:29.107Z,934.93
2016-10-09T12:17:29.155Z,934.94
2016-10-09T12:18:29.198Z,934.89
2016-10-09T12:19:29.260Z,934.84
2016-10-09T12:20:29.296Z,934.87
2016-10-09T12:21:29.350Z,934.83
2016-10-09T12:22:29.414Z,934.81
2016-10-09T12:23:29.484Z,934.82
2016-10-09T12:24:29.511Z,934.79
2016-10-09T12:25:29.587Z,934.78
2016-10-09T12:26:29.620Z,934.83
2016-10-09T12:27:29.696Z,934.89
2016-10-09T12:28:29.742Z,934.84
2016-10-09T12:29:29.795Z,934.82
2016-10-09T12:30:29.835Z,934.79
2016-10-09T12:31:29.902Z,934.85
2016-10-09T12:32:29.946Z,934.81